map of LST home
LST - Airport
Location
City:  Launceston, Tasmania, Australia
ICAO:YMLT
IATA:LST

Details
Type:Airport (Aerodrome, Airfield)
Use:Public/Civil
Latitude:4132'43"S (-41.545277)
Longitude:14712'51"E (147.214167)
Datum:WGS 1984
Elevation:562 ft (171 m)
Variation:14.31E (WMM2015 magnetic declination)
0.03 annual change
Runways:3
Longest:6499 × 148 ft (1981 × 45 m), paved

Time
Time Zone:UTC+10 (DST+11)
Local Time:

Weather
METAR:YMLT 161500Z AUTO 33006KT 9999 // OVC009 15/14 Q1004 RF00.0/011.2
TAF:YMLT 161105Z 1612/1712 34008KT 9999 -SHRA FEW015 SCT030 SCT040
BECMG 1612/1614 34008KT 9999 BKN015
FM162000 32008KT 9999 SCT015 SCT030
FM170200 19010KT 9999 -SHRA SCT030 SCT040
FM170600 17015KT 9999 FEW030 SCT045
FM171000 16012KT 9999 SCT020 SCT030

Related Locations
Nearby:
Farthest:CVU: 12277 mi / 19758 km
Corvo Island, 20, PT

Find:

   beyond  
but within

Other Information
Maps:
NOTAMs:
Links:
Sources:

  
  • flag of Australia
  • flag of Tasmania
  

Sectional Chart

Flight Planning
at skyvector.com

Satellite Image

Google Maps Satellite view

 

Copyright © 2004-2018 Karl L. Swartz. All rights reserved.
The Great Circle Mapper name and logo are trademarks of the Great Circle Mapper.
All other trademarks mentioned herein belong to their respective owners.
Please see credits for attibutions and further copyright information.

  Follow gcmap on Facebook Follow gcmap on Twitter Follow gcmap on Google+ GCmap on LinkedIn

hCard Microformat

Geo Microformat